Luverne, Alabama
Current Conditions -  °F | °C
As of 2:53 AM on Friday 28 Nov 2014 (Local Time) from KTOI Reporting Station
Clear Clear  
Wind Chill: 29°   Ceiling: Unl
Heat Index: 33°   Visibility: 10mi
Dew Point: 29°   Wind: 5mph
Humidity: 85%   Direction: 350°N
Pressure: 30.4"   Gusts: NA
Location:  31.72°N, 86.26°W
Report Text: KTOI 280853Z AUTO 35004KT 10SM CLR 01/M02 A3040 RMK AO2 SLP295 T00061017 56009
Loading
Personal Weather Stations






























Interactive Weather Map New forecast layout! Learn more

10-Day Weather Forecast

Advertisements
Track Severe Weather on mobile